Terminal Aerodrome Forecast
Issued by NWS Louisville, KY

Home | Current Version | Previous Version | Text Only | Print | Product List | Glossary On
Versions: 1 2 3 4 5 6 7 8 9 10 11 12 13 14 15 16 17 18 19 20
000
FTUS43 KLMK 281700
TAFBWG
TAF
KBWG 281727Z 2818/2918 18005KT P6SM BKN070
     FM290900 00000KT 5SM BR SCT070 BKN250
     FM291300 VRB03KT P6SM FEW070 SCT250=

USA.gov is the U.S. government's official web portal to all federal, state and local government web resources and services.